sensor_id;sensor_type;location;lat;lon;timestamp;P1;durP1;ratioP1;P2;durP2;ratioP2
75234;SDS011;63817;51.228;-1.472;2023-05-07T00:02:43;34.83;;;15.77;;
75234;SDS011;63817;51.228;-1.472;2023-05-07T00:08:31;40.13;;;17.00;;
75234;SDS011;63817;51.228;-1.472;2023-05-07T00:14:19;34.63;;;17.05;;
75234;SDS011;63817;51.228;-1.472;2023-05-07T00:26:51;40.42;;;18.00;;
75234;SDS011;63817;51.228;-1.472;2023-05-07T00:32:39;36.28;;;17.90;;
75234;SDS011;63817;51.228;-1.472;2023-05-07T00:38:27;40.55;;;18.52;;
75234;SDS011;63817;51.228;-1.472;2023-05-07T00:58:11;42.85;;;19.55;;
75234;SDS011;63817;51.228;-1.472;2023-05-07T01:03:59;104.18;;;20.20;;
75234;SDS011;63817;51.228;-1.472;2023-05-07T01:09:46;122.95;;;17.75;;
75234;SDS011;63817;51.228;-1.472;2023-05-07T01:15:34;162.00;;;17.25;;
75234;SDS011;63817;51.228;-1.472;2023-05-07T01:21:24;118.05;;;17.45;;
75234;SDS011;63817;51.228;-1.472;2023-05-07T01:27:13;97.90;;;15.57;;
75234;SDS011;63817;51.228;-1.472;2023-05-07T01:33:02;70.90;;;15.05;;
75234;SDS011;63817;51.228;-1.472;2023-05-07T01:38:53;100.40;;;15.13;;
75234;SDS011;63817;51.228;-1.472;2023-05-07T01:44:41;108.18;;;15.38;;
75234;SDS011;63817;51.228;-1.472;2023-05-07T01:57:40;110.88;;;14.65;;
75234;SDS011;63817;51.228;-1.472;2023-05-07T02:03:28;69.72;;;14.07;;
75234;SDS011;63817;51.228;-1.472;2023-05-07T02:09:15;50.28;;;12.95;;
75234;SDS011;63817;51.228;-1.472;2023-05-07T02:15:03;77.60;;;12.57;;
75234;SDS011;63817;51.228;-1.472;2023-05-07T02:20:51;132.48;;;14.18;;
75234;SDS011;63817;51.228;-1.472;2023-05-07T02:26:42;81.10;;;14.52;;
75234;SDS011;63817;51.228;-1.472;2023-05-07T02:32:29;75.00;;;15.45;;
75234;SDS011;63817;51.228;-1.472;2023-05-07T02:38:17;40.97;;;14.48;;
75234;SDS011;63817;51.228;-1.472;2023-05-07T02:44:05;35.13;;;14.27;;
75234;SDS011;63817;51.228;-1.472;2023-05-07T02:59:37;34.83;;;15.02;;
75234;SDS011;63817;51.228;-1.472;2023-05-07T03:05:24;33.05;;;16.20;;
75234;SDS011;63817;51.228;-1.472;2023-05-07T03:11:12;34.22;;;16.80;;
75234;SDS011;63817;51.228;-1.472;2023-05-07T03:16:59;51.90;;;21.67;;
75234;SDS011;63817;51.228;-1.472;2023-05-07T03:22:47;63.10;;;27.83;;
75234;SDS011;63817;51.228;-1.472;2023-05-07T03:31:56;63.30;;;27.30;;
75234;SDS011;63817;51.228;-1.472;2023-05-07T03:38:03;61.00;;;27.02;;
75234;SDS011;63817;51.228;-1.472;2023-05-07T03:43:51;67.43;;;26.92;;
75234;SDS011;63817;51.228;-1.472;2023-05-07T03:59:30;90.38;;;30.60;;
75234;SDS011;63817;51.228;-1.472;2023-05-07T04:14:54;83.38;;;28.92;;
75234;SDS011;63817;51.228;-1.472;2023-05-07T04:20:43;57.78;;;25.30;;
75234;SDS011;63817;51.228;-1.472;2023-05-07T04:26:30;93.22;;;26.73;;
75234;SDS011;63817;51.228;-1.472;2023-05-07T04:32:18;72.43;;;29.02;;
75234;SDS011;63817;51.228;-1.472;2023-05-07T04:38:06;68.28;;;27.13;;
75234;SDS011;63817;51.228;-1.472;2023-05-07T04:43:53;67.32;;;27.70;;
75234;SDS011;63817;51.228;-1.472;2023-05-07T05:00:32;57.20;;;25.55;;
75234;SDS011;63817;51.228;-1.472;2023-05-07T05:12:27;30.17;;;17.65;;
75234;SDS011;63817;51.228;-1.472;2023-05-07T05:18:15;18.50;;;11.80;;
75234;SDS011;63817;51.228;-1.472;2023-05-07T05:24:02;18.30;;;12.25;;
75234;SDS011;63817;51.228;-1.472;2023-05-07T05:29:50;19.30;;;12.73;;
75234;SDS011;63817;51.228;-1.472;2023-05-07T05:35:37;22.63;;;13.75;;
75234;SDS011;63817;51.228;-1.472;2023-05-07T05:41:25;18.33;;;12.38;;
75234;SDS011;63817;51.228;-1.472;2023-05-07T05:47:12;21.15;;;13.93;;
75234;SDS011;63817;51.228;-1.472;2023-05-07T05:53:00;20.52;;;13.68;;
75234;SDS011;63817;51.228;-1.472;2023-05-07T06:02:49;24.60;;;14.75;;
75234;SDS011;63817;51.228;-1.472;2023-05-07T06:08:37;19.10;;;12.57;;
75234;SDS011;63817;51.228;-1.472;2023-05-07T06:14:24;19.77;;;12.90;;
75234;SDS011;63817;51.228;-1.472;2023-05-07T06:20:12;17.50;;;11.15;;
75234;SDS011;63817;51.228;-1.472;2023-05-07T06:25:59;15.52;;;10.93;;
75234;SDS011;63817;51.228;-1.472;2023-05-07T06:31:47;15.73;;;10.13;;
75234;SDS011;63817;51.228;-1.472;2023-05-07T06:37:34;13.43;;;9.55;;
75234;SDS011;63817;51.228;-1.472;2023-05-07T06:43:22;16.98;;;10.52;;
75234;SDS011;63817;51.228;-1.472;2023-05-07T06:49:09;11.25;;;8.73;;
75234;SDS011;63817;51.228;-1.472;2023-05-07T06:57:51;13.98;;;8.75;;
75234;SDS011;63817;51.228;-1.472;2023-05-07T07:03:38;11.57;;;8.25;;
75234;SDS011;63817;51.228;-1.472;2023-05-07T07:09:26;10.43;;;7.25;;
75234;SDS011;63817;51.228;-1.472;2023-05-07T07:15:13;12.23;;;8.88;;
75234;SDS011;63817;51.228;-1.472;2023-05-07T07:21:01;18.27;;;10.77;;
75234;SDS011;63817;51.228;-1.472;2023-05-07T07:26:49;12.50;;;8.73;;
75234;SDS011;63817;51.228;-1.472;2023-05-07T07:32:36;11.52;;;8.77;;
75234;SDS011;63817;51.228;-1.472;2023-05-07T07:38:24;13.23;;;9.70;;
75234;SDS011;63817;51.228;-1.472;2023-05-07T07:44:12;13.60;;;9.15;;
75234;SDS011;63817;51.228;-1.472;2023-05-07T07:50:00;14.15;;;9.35;;
75234;SDS011;63817;51.228;-1.472;2023-05-07T07:55:47;13.77;;;9.98;;
75234;SDS011;63817;51.228;-1.472;2023-05-07T08:01:55;14.88;;;10.23;;
75234;SDS011;63817;51.228;-1.472;2023-05-07T08:56:37;19.90;;;12.77;;
75234;SDS011;63817;51.228;-1.472;2023-05-07T08:59:05;20.58;;;14.02;;
75234;SDS011;63817;51.228;-1.472;2023-05-07T09:01:30;20.02;;;12.63;;
75234;SDS011;63817;51.228;-1.472;2023-05-07T09:03:55;17.98;;;11.93;;
75234;SDS011;63817;51.228;-1.472;2023-05-07T09:06:22;16.77;;;10.63;;
75234;SDS011;63817;51.228;-1.472;2023-05-07T09:08:51;17.05;;;10.85;;
75234;SDS011;63817;51.228;-1.472;2023-05-07T09:11:21;15.85;;;10.30;;
75234;SDS011;63817;51.228;-1.472;2023-05-07T09:13:47;18.08;;;12.15;;
75234;SDS011;63817;51.228;-1.472;2023-05-07T09:16:14;15.95;;;10.95;;
75234;SDS011;63817;51.228;-1.472;2023-05-07T09:18:40;15.13;;;9.60;;
75234;SDS011;63817;51.228;-1.472;2023-05-07T09:21:09;12.70;;;9.40;;
75234;SDS011;63817;51.228;-1.472;2023-05-07T09:23:35;13.13;;;8.70;;
75234;SDS011;63817;51.228;-1.472;2023-05-07T09:26:00;13.23;;;8.85;;
75234;SDS011;63817;51.228;-1.472;2023-05-07T09:28:26;10.52;;;8.23;;
75234;SDS011;63817;51.228;-1.472;2023-05-07T09:30:52;15.05;;;9.52;;
75234;SDS011;63817;51.228;-1.472;2023-05-07T09:33:17;13.93;;;9.60;;
75234;SDS011;63817;51.228;-1.472;2023-05-07T09:35:43;10.73;;;8.07;;
75234;SDS011;63817;51.228;-1.472;2023-05-07T09:38:08;11.68;;;8.23;;
75234;SDS011;63817;51.228;-1.472;2023-05-07T09:40:33;9.48;;;7.45;;
75234;SDS011;63817;51.228;-1.472;2023-05-07T09:43:09;11.18;;;7.88;;
75234;SDS011;63817;51.228;-1.472;2023-05-07T09:45:36;13.38;;;7.05;;
75234;SDS011;63817;51.228;-1.472;2023-05-07T09:48:01;9.88;;;6.57;;
75234;SDS011;63817;51.228;-1.472;2023-05-07T09:50:32;12.82;;;6.88;;
75234;SDS011;63817;51.228;-1.472;2023-05-07T09:53:05;7.65;;;5.90;;
75234;SDS011;63817;51.228;-1.472;2023-05-07T09:55:30;8.82;;;5.75;;
75234;SDS011;63817;51.228;-1.472;2023-05-07T09:57:56;5.70;;;4.70;;
75234;SDS011;63817;51.228;-1.472;2023-05-07T10:00:22;10.02;;;5.40;;
75234;SDS011;63817;51.228;-1.472;2023-05-07T10:02:51;7.82;;;5.25;;
75234;SDS011;63817;51.228;-1.472;2023-05-07T10:05:21;9.90;;;6.10;;
75234;SDS011;63817;51.228;-1.472;2023-05-07T10:07:47;9.27;;;6.63;;
75234;SDS011;63817;51.228;-1.472;2023-05-07T10:10:13;16.38;;;6.95;;
75234;SDS011;63817;51.228;-1.472;2023-05-07T10:12:40;11.40;;;7.10;;
75234;SDS011;63817;51.228;-1.472;2023-05-07T10:15:06;12.60;;;7.30;;
75234;SDS011;63817;51.228;-1.472;2023-05-07T10:17:39;14.00;;;7.00;;
75234;SDS011;63817;51.228;-1.472;2023-05-07T10:20:05;11.15;;;7.53;;
75234;SDS011;63817;51.228;-1.472;2023-05-07T10:22:33;11.60;;;7.53;;
75234;SDS011;63817;51.228;-1.472;2023-05-07T10:27:31;12.35;;;7.43;;
75234;SDS011;63817;51.228;-1.472;2023-05-07T10:35:26;18.45;;;9.15;;
75234;SDS011;63817;51.228;-1.472;2023-05-07T10:37:52;15.75;;;9.25;;
75234;SDS011;63817;51.228;-1.472;2023-05-07T10:40:17;18.95;;;10.25;;
75234;SDS011;63817;51.228;-1.472;2023-05-07T10:42:58;13.90;;;8.80;;
75234;SDS011;63817;51.228;-1.472;2023-05-07T10:45:24;15.70;;;9.50;;
75234;SDS011;63817;51.228;-1.472;2023-05-07T10:48:06;15.65;;;9.70;;
75234;SDS011;63817;51.228;-1.472;2023-05-07T10:50:38;16.40;;;9.13;;
75234;SDS011;63817;51.228;-1.472;2023-05-07T10:53:20;15.93;;;8.77;;
75234;SDS011;63817;51.228;-1.472;2023-05-07T10:55:46;16.02;;;7.30;;
75234;SDS011;63817;51.228;-1.472;2023-05-07T10:58:25;14.10;;;8.40;;
75234;SDS011;63817;51.228;-1.472;2023-05-07T11:00:58;14.27;;;7.75;;
75234;SDS011;63817;51.228;-1.472;2023-05-07T11:03:24;17.80;;;9.60;;
75234;SDS011;63817;51.228;-1.472;2023-05-07T11:06:10;18.45;;;9.30;;
75234;SDS011;63817;51.228;-1.472;2023-05-07T11:08:55;16.55;;;8.80;;
75234;SDS011;63817;51.228;-1.472;2023-05-07T11:14:37;13.60;;;7.22;;
75234;SDS011;63817;51.228;-1.472;2023-05-07T11:17:07;11.75;;;7.35;;
75234;SDS011;63817;51.228;-1.472;2023-05-07T11:25:05;20.17;;;9.95;;
75234;SDS011;63817;51.228;-1.472;2023-05-07T11:27:32;17.38;;;9.02;;
75234;SDS011;63817;51.228;-1.472;2023-05-07T11:29:58;18.02;;;11.05;;
75234;SDS011;63817;51.228;-1.472;2023-05-07T11:32:24;16.73;;;10.18;;
75234;SDS011;63817;51.228;-1.472;2023-05-07T11:34:51;25.80;;;12.15;;
75234;SDS011;63817;51.228;-1.472;2023-05-07T11:37:17;20.42;;;10.57;;
75234;SDS011;63817;51.228;-1.472;2023-05-07T11:39:43;17.58;;;9.25;;
75234;SDS011;63817;51.228;-1.472;2023-05-07T11:42:41;14.68;;;8.27;;
75234;SDS011;63817;51.228;-1.472;2023-05-07T11:45:02;18.23;;;8.95;;
75234;SDS011;63817;51.228;-1.472;2023-05-07T11:47:31;18.13;;;9.15;;
75234;SDS011;63817;51.228;-1.472;2023-05-07T11:50:01;12.55;;;7.03;;
75234;SDS011;63817;51.228;-1.472;2023-05-07T11:52:31;10.80;;;6.78;;
75234;SDS011;63817;51.228;-1.472;2023-05-07T11:54:57;14.10;;;7.22;;
75234;SDS011;63817;51.228;-1.472;2023-05-07T11:57:25;11.80;;;6.13;;
75234;SDS011;63817;51.228;-1.472;2023-05-07T11:59:57;10.07;;;6.00;;
75234;SDS011;63817;51.228;-1.472;2023-05-07T12:02:23;13.65;;;6.70;;
75234;SDS011;63817;51.228;-1.472;2023-05-07T12:04:53;14.88;;;6.63;;
75234;SDS011;63817;51.228;-1.472;2023-05-07T12:07:19;12.55;;;7.03;;
75234;SDS011;63817;51.228;-1.472;2023-05-07T12:09:45;10.60;;;6.72;;
75234;SDS011;63817;51.228;-1.472;2023-05-07T12:12:11;11.70;;;6.70;;
75234;SDS011;63817;51.228;-1.472;2023-05-07T12:14:40;10.52;;;6.43;;
75234;SDS011;63817;51.228;-1.472;2023-05-07T12:17:07;12.02;;;6.82;;
75234;SDS011;63817;51.228;-1.472;2023-05-07T12:19:36;10.18;;;6.78;;
75234;SDS011;63817;51.228;-1.472;2023-05-07T12:22:02;15.38;;;7.47;;
75234;SDS011;63817;51.228;-1.472;2023-05-07T12:24:28;11.90;;;6.93;;
75234;SDS011;63817;51.228;-1.472;2023-05-07T12:26:54;9.85;;;5.57;;
75234;SDS011;63817;51.228;-1.472;2023-05-07T12:29:23;9.10;;;5.90;;
75234;SDS011;63817;51.228;-1.472;2023-05-07T12:31:49;10.93;;;4.97;;
75234;SDS011;63817;51.228;-1.472;2023-05-07T12:34:15;11.45;;;5.85;;
75234;SDS011;63817;51.228;-1.472;2023-05-07T12:36:40;10.82;;;5.47;;
75234;SDS011;63817;51.228;-1.472;2023-05-07T12:39:06;7.70;;;5.00;;
75234;SDS011;63817;51.228;-1.472;2023-05-07T12:41:55;9.82;;;5.32;;
75234;SDS011;63817;51.228;-1.472;2023-05-07T12:44:29;12.75;;;6.20;;
75234;SDS011;63817;51.228;-1.472;2023-05-07T12:46:56;14.52;;;7.03;;
75234;SDS011;63817;51.228;-1.472;2023-05-07T12:49:21;14.85;;;7.22;;
75234;SDS011;63817;51.228;-1.472;2023-05-07T12:51:48;14.02;;;7.32;;
75234;SDS011;63817;51.228;-1.472;2023-05-07T12:54:27;11.57;;;5.60;;
75234;SDS011;63817;51.228;-1.472;2023-05-07T12:57:03;9.35;;;5.10;;
75234;SDS011;63817;51.228;-1.472;2023-05-07T12:59:38;9.40;;;5.63;;
75234;SDS011;63817;51.228;-1.472;2023-05-07T13:02:05;13.13;;;6.15;;
75234;SDS011;63817;51.228;-1.472;2023-05-07T13:04:31;10.60;;;5.53;;
75234;SDS011;63817;51.228;-1.472;2023-05-07T13:06:57;12.55;;;5.55;;
75234;SDS011;63817;51.228;-1.472;2023-05-07T13:09:23;8.60;;;5.80;;
75234;SDS011;63817;51.228;-1.472;2023-05-07T13:11:48;15.35;;;5.40;;
75234;SDS011;63817;51.228;-1.472;2023-05-07T13:14:14;12.63;;;5.70;;
75234;SDS011;63817;51.228;-1.472;2023-05-07T13:16:40;10.68;;;5.70;;
75234;SDS011;63817;51.228;-1.472;2023-05-07T13:19:05;10.23;;;6.30;;
75234;SDS011;63817;51.228;-1.472;2023-05-07T13:21:31;11.82;;;6.05;;
75234;SDS011;63817;51.228;-1.472;2023-05-07T13:23:59;12.25;;;7.00;;
75234;SDS011;63817;51.228;-1.472;2023-05-07T13:26:25;14.10;;;7.50;;
75234;SDS011;63817;51.228;-1.472;2023-05-07T13:28:51;14.38;;;8.50;;
75234;SDS011;63817;51.228;-1.472;2023-05-07T13:31:17;11.50;;;8.23;;
75234;SDS011;63817;51.228;-1.472;2023-05-07T13:33:42;17.77;;;8.45;;
75234;SDS011;63817;51.228;-1.472;2023-05-07T13:36:08;12.77;;;8.25;;
75234;SDS011;63817;51.228;-1.472;2023-05-07T13:38:34;12.60;;;8.40;;
75234;SDS011;63817;51.228;-1.472;2023-05-07T13:41:00;14.95;;;8.95;;
75234;SDS011;63817;51.228;-1.472;2023-05-07T13:43:25;23.20;;;10.10;;
75234;SDS011;63817;51.228;-1.472;2023-05-07T13:45:51;16.70;;;9.93;;
75234;SDS011;63817;51.228;-1.472;2023-05-07T13:48:16;17.23;;;10.00;;
75234;SDS011;63817;51.228;-1.472;2023-05-07T13:50:41;17.83;;;9.93;;
75234;SDS011;63817;51.228;-1.472;2023-05-07T13:53:07;14.00;;;9.77;;
75234;SDS011;63817;51.228;-1.472;2023-05-07T13:55:33;15.10;;;10.38;;
75234;SDS011;63817;51.228;-1.472;2023-05-07T13:57:59;15.13;;;9.38;;
75234;SDS011;63817;51.228;-1.472;2023-05-07T14:00:26;16.83;;;10.00;;
75234;SDS011;63817;51.228;-1.472;2023-05-07T14:02:52;19.17;;;10.05;;
75234;SDS011;63817;51.228;-1.472;2023-05-07T14:05:18;19.42;;;10.15;;
75234;SDS011;63817;51.228;-1.472;2023-05-07T14:07:43;16.10;;;10.18;;
75234;SDS011;63817;51.228;-1.472;2023-05-07T14:10:09;16.88;;;9.77;;
75234;SDS011;63817;51.228;-1.472;2023-05-07T14:12:36;17.30;;;9.75;;
75234;SDS011;63817;51.228;-1.472;2023-05-07T14:15:01;18.35;;;9.68;;
75234;SDS011;63817;51.228;-1.472;2023-05-07T14:17:27;14.95;;;9.45;;
75234;SDS011;63817;51.228;-1.472;2023-05-07T14:19:52;15.60;;;9.52;;
75234;SDS011;63817;51.228;-1.472;2023-05-07T14:22:19;13.65;;;9.60;;
75234;SDS011;63817;51.228;-1.472;2023-05-07T14:24:45;13.80;;;7.90;;
75234;SDS011;63817;51.228;-1.472;2023-05-07T14:27:11;12.02;;;7.68;;
75234;SDS011;63817;51.228;-1.472;2023-05-07T14:29:36;17.33;;;7.43;;
75234;SDS011;63817;51.228;-1.472;2023-05-07T14:32:02;11.55;;;6.35;;
75234;SDS011;63817;51.228;-1.472;2023-05-07T14:34:28;16.15;;;6.88;;
75234;SDS011;63817;51.228;-1.472;2023-05-07T14:36:53;13.15;;;6.78;;
75234;SDS011;63817;51.228;-1.472;2023-05-07T14:39:19;13.27;;;7.35;;
75234;SDS011;63817;51.228;-1.472;2023-05-07T14:41:44;13.50;;;6.90;;
75234;SDS011;63817;51.228;-1.472;2023-05-07T14:44:09;8.90;;;7.05;;
75234;SDS011;63817;51.228;-1.472;2023-05-07T14:46:35;10.65;;;6.22;;
75234;SDS011;63817;51.228;-1.472;2023-05-07T14:49:01;17.50;;;6.97;;
75234;SDS011;63817;51.228;-1.472;2023-05-07T14:51:27;10.55;;;5.85;;
75234;SDS011;63817;51.228;-1.472;2023-05-07T14:53:53;11.20;;;5.25;;
75234;SDS011;63817;51.228;-1.472;2023-05-07T14:56:19;11.02;;;5.78;;
75234;SDS011;63817;51.228;-1.472;2023-05-07T14:58:46;13.02;;;6.65;;
75234;SDS011;63817;51.228;-1.472;2023-05-07T15:01:13;12.25;;;6.43;;
75234;SDS011;63817;51.228;-1.472;2023-05-07T15:03:38;14.93;;;7.68;;
75234;SDS011;63817;51.228;-1.472;2023-05-07T15:06:04;14.43;;;7.30;;
75234;SDS011;63817;51.228;-1.472;2023-05-07T15:08:30;12.77;;;7.05;;
75234;SDS011;63817;51.228;-1.472;2023-05-07T15:10:55;17.05;;;7.45;;
75234;SDS011;63817;51.228;-1.472;2023-05-07T15:13:21;14.13;;;8.05;;
75234;SDS011;63817;51.228;-1.472;2023-05-07T15:15:47;13.73;;;7.68;;
75234;SDS011;63817;51.228;-1.472;2023-05-07T15:18:13;10.95;;;7.00;;
75234;SDS011;63817;51.228;-1.472;2023-05-07T15:20:39;13.07;;;7.05;;
75234;SDS011;63817;51.228;-1.472;2023-05-07T15:23:06;15.25;;;7.18;;
75234;SDS011;63817;51.228;-1.472;2023-05-07T15:25:34;17.95;;;8.23;;
75234;SDS011;63817;51.228;-1.472;2023-05-07T15:28:00;14.02;;;7.43;;
75234;SDS011;63817;51.228;-1.472;2023-05-07T15:30:25;12.75;;;6.85;;
75234;SDS011;63817;51.228;-1.472;2023-05-07T15:32:52;17.65;;;6.95;;
75234;SDS011;63817;51.228;-1.472;2023-05-07T15:35:18;17.20;;;7.95;;
75234;SDS011;63817;51.228;-1.472;2023-05-07T15:37:46;12.20;;;6.50;;
75234;SDS011;63817;51.228;-1.472;2023-05-07T15:40:14;12.93;;;7.80;;
75234;SDS011;63817;51.228;-1.472;2023-05-07T15:42:40;10.80;;;6.13;;
75234;SDS011;63817;51.228;-1.472;2023-05-07T15:45:05;12.65;;;6.13;;
75234;SDS011;63817;51.228;-1.472;2023-05-07T15:47:32;11.43;;;5.75;;
75234;SDS011;63817;51.228;-1.472;2023-05-07T15:49:58;33.88;;;6.03;;
75234;SDS011;63817;51.228;-1.472;2023-05-07T15:52:23;8.95;;;5.65;;
75234;SDS011;63817;51.228;-1.472;2023-05-07T15:54:49;10.63;;;6.32;;
75234;SDS011;63817;51.228;-1.472;2023-05-07T15:57:14;13.30;;;6.72;;
75234;SDS011;63817;51.228;-1.472;2023-05-07T15:59:40;13.55;;;6.50;;
75234;SDS011;63817;51.228;-1.472;2023-05-07T16:02:06;11.32;;;5.75;;
75234;SDS011;63817;51.228;-1.472;2023-05-07T16:04:32;9.25;;;6.05;;
75234;SDS011;63817;51.228;-1.472;2023-05-07T16:06:57;9.80;;;5.32;;
75234;SDS011;63817;51.228;-1.472;2023-05-07T16:09:23;11.05;;;6.15;;
75234;SDS011;63817;51.228;-1.472;2023-05-07T16:11:49;10.43;;;6.05;;
75234;SDS011;63817;51.228;-1.472;2023-05-07T16:14:15;11.93;;;5.93;;
75234;SDS011;63817;51.228;-1.472;2023-05-07T16:16:40;10.73;;;6.20;;
75234;SDS011;63817;51.228;-1.472;2023-05-07T16:19:06;14.73;;;5.80;;
75234;SDS011;63817;51.228;-1.472;2023-05-07T16:21:31;15.38;;;6.45;;
75234;SDS011;63817;51.228;-1.472;2023-05-07T16:23:57;11.35;;;5.75;;
75234;SDS011;63817;51.228;-1.472;2023-05-07T16:26:22;8.85;;;5.32;;
75234;SDS011;63817;51.228;-1.472;2023-05-07T16:28:48;9.75;;;4.78;;
75234;SDS011;63817;51.228;-1.472;2023-05-07T16:31:13;9.82;;;4.28;;
75234;SDS011;63817;51.228;-1.472;2023-05-07T16:33:39;11.45;;;5.40;;
75234;SDS011;63817;51.228;-1.472;2023-05-07T16:36:05;9.48;;;4.07;;
75234;SDS011;63817;51.228;-1.472;2023-05-07T16:38:30;6.65;;;3.25;;
75234;SDS011;63817;51.228;-1.472;2023-05-07T16:40:58;12.57;;;3.83;;
75234;SDS011;63817;51.228;-1.472;2023-05-07T16:43:23;13.23;;;4.10;;
75234;SDS011;63817;51.228;-1.472;2023-05-07T16:45:49;9.32;;;3.50;;
75234;SDS011;63817;51.228;-1.472;2023-05-07T16:48:14;11.05;;;3.58;;
75234;SDS011;63817;51.228;-1.472;2023-05-07T16:50:40;7.80;;;3.60;;
75234;SDS011;63817;51.228;-1.472;2023-05-07T16:53:08;10.93;;;3.72;;
75234;SDS011;63817;51.228;-1.472;2023-05-07T16:55:37;6.70;;;3.33;;
75234;SDS011;63817;51.228;-1.472;2023-05-07T16:58:04;9.48;;;3.15;;
75234;SDS011;63817;51.228;-1.472;2023-05-07T17:00:30;10.95;;;2.75;;
75234;SDS011;63817;51.228;-1.472;2023-05-07T17:02:55;6.50;;;3.00;;
75234;SDS011;63817;51.228;-1.472;2023-05-07T17:05:21;8.30;;;3.25;;
75234;SDS011;63817;51.228;-1.472;2023-05-07T17:07:46;9.20;;;3.47;;
75234;SDS011;63817;51.228;-1.472;2023-05-07T17:10:12;11.27;;;3.17;;
75234;SDS011;63817;51.228;-1.472;2023-05-07T17:12:37;8.65;;;3.40;;
75234;SDS011;63817;51.228;-1.472;2023-05-07T17:15:03;16.40;;;3.58;;
75234;SDS011;63817;51.228;-1.472;2023-05-07T17:17:29;7.13;;;2.63;;
75234;SDS011;63817;51.228;-1.472;2023-05-07T17:19:54;11.70;;;3.40;;
75234;SDS011;63817;51.228;-1.472;2023-05-07T17:22:19;6.90;;;2.97;;
75234;SDS011;63817;51.228;-1.472;2023-05-07T17:24:45;11.55;;;3.25;;
75234;SDS011;63817;51.228;-1.472;2023-05-07T17:27:11;9.65;;;3.42;;
75234;SDS011;63817;51.228;-1.472;2023-05-07T17:29:37;8.88;;;3.72;;
75234;SDS011;63817;51.228;-1.472;2023-05-07T17:32:02;10.30;;;2.85;;
75234;SDS011;63817;51.228;-1.472;2023-05-07T17:34:27;8.32;;;2.92;;
75234;SDS011;63817;51.228;-1.472;2023-05-07T17:36:53;12.88;;;3.22;;
75234;SDS011;63817;51.228;-1.472;2023-05-07T17:39:18;8.43;;;3.08;;
75234;SDS011;63817;51.228;-1.472;2023-05-07T17:41:44;15.40;;;3.28;;
75234;SDS011;63817;51.228;-1.472;2023-05-07T17:44:10;12.38;;;4.38;;
75234;SDS011;63817;51.228;-1.472;2023-05-07T17:46:35;8.52;;;2.92;;
75234;SDS011;63817;51.228;-1.472;2023-05-07T17:49:01;8.90;;;2.95;;
75234;SDS011;63817;51.228;-1.472;2023-05-07T17:51:26;7.63;;;2.97;;
75234;SDS011;63817;51.228;-1.472;2023-05-07T17:53:53;8.02;;;2.88;;
75234;SDS011;63817;51.228;-1.472;2023-05-07T17:56:19;14.20;;;4.80;;
75234;SDS011;63817;51.228;-1.472;2023-05-07T17:58:45;5.53;;;2.35;;
75234;SDS011;63817;51.228;-1.472;2023-05-07T18:01:10;12.73;;;3.08;;
75234;SDS011;63817;51.228;-1.472;2023-05-07T18:03:36;9.10;;;3.03;;
75234;SDS011;63817;51.228;-1.472;2023-05-07T18:06:01;16.10;;;4.45;;
75234;SDS011;63817;51.228;-1.472;2023-05-07T18:08:27;12.73;;;3.63;;
75234;SDS011;63817;51.228;-1.472;2023-05-07T18:10:52;9.45;;;3.60;;
75234;SDS011;63817;51.228;-1.472;2023-05-07T18:13:18;8.52;;;3.10;;
75234;SDS011;63817;51.228;-1.472;2023-05-07T18:15:44;12.05;;;3.03;;
75234;SDS011;63817;51.228;-1.472;2023-05-07T18:18:10;14.52;;;4.25;;
75234;SDS011;63817;51.228;-1.472;2023-05-07T18:20:36;8.30;;;3.30;;
75234;SDS011;63817;51.228;-1.472;2023-05-07T18:23:01;12.57;;;3.38;;
75234;SDS011;63817;51.228;-1.472;2023-05-07T18:25:27;10.18;;;3.00;;
75234;SDS011;63817;51.228;-1.472;2023-05-07T18:27:53;11.95;;;3.40;;
75234;SDS011;63817;51.228;-1.472;2023-05-07T18:30:18;8.00;;;3.15;;
75234;SDS011;63817;51.228;-1.472;2023-05-07T18:32:43;10.13;;;2.88;;
75234;SDS011;63817;51.228;-1.472;2023-05-07T18:35:09;9.48;;;2.58;;
75234;SDS011;63817;51.228;-1.472;2023-05-07T18:37:34;8.88;;;2.90;;
75234;SDS011;63817;51.228;-1.472;2023-05-07T18:40:00;14.40;;;3.40;;
75234;SDS011;63817;51.228;-1.472;2023-05-07T18:42:28;7.68;;;2.78;;
75234;SDS011;63817;51.228;-1.472;2023-05-07T18:44:53;12.02;;;2.65;;
75234;SDS011;63817;51.228;-1.472;2023-05-07T18:47:18;12.38;;;3.20;;
75234;SDS011;63817;51.228;-1.472;2023-05-07T18:49:44;10.00;;;3.38;;
75234;SDS011;63817;51.228;-1.472;2023-05-07T18:52:09;12.18;;;3.88;;
75234;SDS011;63817;51.228;-1.472;2023-05-07T18:54:35;9.95;;;3.53;;
75234;SDS011;63817;51.228;-1.472;2023-05-07T18:57:00;12.45;;;3.10;;
75234;SDS011;63817;51.228;-1.472;2023-05-07T18:59:25;11.27;;;3.35;;
75234;SDS011;63817;51.228;-1.472;2023-05-07T19:01:51;12.05;;;2.58;;
75234;SDS011;63817;51.228;-1.472;2023-05-07T19:04:16;11.10;;;2.75;;
75234;SDS011;63817;51.228;-1.472;2023-05-07T19:06:42;8.02;;;2.97;;
75234;SDS011;63817;51.228;-1.472;2023-05-07T19:09:07;9.35;;;3.10;;
75234;SDS011;63817;51.228;-1.472;2023-05-07T19:11:33;10.32;;;3.17;;
75234;SDS011;63817;51.228;-1.472;2023-05-07T19:13:58;11.68;;;2.42;;
75234;SDS011;63817;51.228;-1.472;2023-05-07T19:16:24;7.20;;;3.38;;
75234;SDS011;63817;51.228;-1.472;2023-05-07T19:18:49;11.07;;;3.47;;
75234;SDS011;63817;51.228;-1.472;2023-05-07T19:21:15;9.15;;;2.95;;
75234;SDS011;63817;51.228;-1.472;2023-05-07T19:23:40;7.68;;;2.97;;
75234;SDS011;63817;51.228;-1.472;2023-05-07T19:26:09;7.82;;;3.67;;
75234;SDS011;63817;51.228;-1.472;2023-05-07T19:28:36;9.55;;;3.63;;
75234;SDS011;63817;51.228;-1.472;2023-05-07T19:31:02;12.48;;;3.13;;
75234;SDS011;63817;51.228;-1.472;2023-05-07T19:33:27;7.97;;;3.13;;
75234;SDS011;63817;51.228;-1.472;2023-05-07T19:35:54;11.32;;;3.05;;
75234;SDS011;63817;51.228;-1.472;2023-05-07T19:38:22;8.90;;;2.75;;
75234;SDS011;63817;51.228;-1.472;2023-05-07T19:40:51;13.32;;;3.20;;
75234;SDS011;63817;51.228;-1.472;2023-05-07T19:43:21;8.65;;;3.13;;
75234;SDS011;63817;51.228;-1.472;2023-05-07T19:45:46;16.60;;;2.75;;
75234;SDS011;63817;51.228;-1.472;2023-05-07T19:48:12;6.20;;;2.38;;
75234;SDS011;63817;51.228;-1.472;2023-05-07T19:50:38;9.90;;;2.90;;
75234;SDS011;63817;51.228;-1.472;2023-05-07T19:53:04;8.50;;;3.63;;
75234;SDS011;63817;51.228;-1.472;2023-05-07T19:55:29;10.43;;;3.28;;
75234;SDS011;63817;51.228;-1.472;2023-05-07T19:57:55;8.23;;;2.63;;
75234;SDS011;63817;51.228;-1.472;2023-05-07T20:00:20;12.90;;;3.17;;
75234;SDS011;63817;51.228;-1.472;2023-05-07T20:02:46;6.50;;;2.63;;
75234;SDS011;63817;51.228;-1.472;2023-05-07T20:05:13;10.38;;;3.63;;
75234;SDS011;63817;51.228;-1.472;2023-05-07T20:07:38;11.60;;;3.10;;
75234;SDS011;63817;51.228;-1.472;2023-05-07T20:10:04;10.82;;;2.90;;
75234;SDS011;63817;51.228;-1.472;2023-05-07T20:12:30;11.05;;;3.55;;
75234;SDS011;63817;51.228;-1.472;2023-05-07T20:14:55;9.63;;;2.95;;
75234;SDS011;63817;51.228;-1.472;2023-05-07T20:17:21;7.85;;;2.78;;
75234;SDS011;63817;51.228;-1.472;2023-05-07T20:19:46;13.15;;;3.40;;
75234;SDS011;63817;51.228;-1.472;2023-05-07T20:22:11;12.20;;;4.72;;
75234;SDS011;63817;51.228;-1.472;2023-05-07T20:24:37;9.23;;;3.90;;
75234;SDS011;63817;51.228;-1.472;2023-05-07T20:27:05;11.55;;;4.70;;
75234;SDS011;63817;51.228;-1.472;2023-05-07T20:29:33;13.30;;;4.38;;
75234;SDS011;63817;51.228;-1.472;2023-05-07T20:31:59;10.07;;;4.53;;
75234;SDS011;63817;51.228;-1.472;2023-05-07T20:34:25;13.07;;;4.50;;
75234;SDS011;63817;51.228;-1.472;2023-05-07T20:36:50;11.52;;;4.32;;
75234;SDS011;63817;51.228;-1.472;2023-05-07T20:39:16;12.27;;;4.20;;
75234;SDS011;63817;51.228;-1.472;2023-05-07T20:41:41;15.52;;;4.63;;